Palma de Mallorca, Spain

04:59 PM CEST on Augusti 19, 2018 (GMT +0200)
Sa Pobla | | Change Station

Elev 35 ft 39.76 °N, 3.03 °E | Updated 11 seconds ago

Klart
Klart
83.3 °F
Feels Like 85 °F
N
11.5
Vind Växlande Vind from Nordlig
Gusts 7.9 miles/tim

Idag
High -- | Low -- °F
--% Chance of Precip.
Yesterday
High -- | Low -- °F
Precip. -- tum
Lufttryck 30.06 tum
Sikt 6.2 miles
Molnigt Few 5000 ft
Värmeindex 85 °F
Daggpunkt 64 °F
Luftfuktighet 52%
Rainfall 0.00 tum
Snow Depth Not available.
7:03 AM 8:39 PM
Andra kvarteret, 63% visible
METAR LEPA 191430Z 07012KT 030V120 9999 FEW050 31/16 Q1018 NOSIG
Lufttryck 30.06 tum
Sikt 6.2 miles
Molnigt Few 5000 ft
Värmeindex 85 °F
Daggpunkt 64 °F
Luftfuktighet 52%
Rainfall 0.00 tum
Snow Depth Not available.
7:03 AM 8:39 PM
Andra kvarteret, 63% visible
METAR LEPA 191430Z 07012KT 030V120 9999 FEW050 31/16 Q1018 NOSIG

Get Severe Weather Alerts

Thanks for signing up!

Be on the lookout for a verification email in your inbox.

You'll start receiving the daily forecast at 6 AM.

×

10-Day Weather Forecast

×

Almanac

Astronomi

Aug. 19, 2018 Rise Set
Actual Time
Civil Twilight
Nautical Twilight
Astronomical Twilight
Månen
Length Of Visible Light
Dagens längd
Tomorrow will be .
, % of the Moon is Illuminated

Today's Extremes

Country Highs Country Lows

Community

WunderPhotos

Category 6

Welcome to Category 6. This is the collective home for Weather Underground's featured writeups by Dr. Jeff Masters (right), Bob Henson (left), Chris Burt, and other regular contributors.

Nearby

Air Quality

  Air Quality AQ Index Pollutant
Not available.

Snödjup

Station Depth Elevation

Earthquake Activity

Stad Distance Mag. Time & Date
Minimum magnitude displayed is 2.5.

Coastal Water Temperatures

Plats Temperatur

Stations

Nearby Weather Stations

Station Location Temp Vindavkylning Daggpunkt Luftfuktighet Vind Precip. Elev Uppdaterad Type